Academy, South Dakota
Current Conditions -  °F | °C
As of 2:55 PM on Sunday 21 Dec 2014 (Local Time) from K9V9 Reporting Station
Clear Clear  
Wind Chill: 30°   Ceiling: Unl
Heat Index: 36°   Visibility: 10mi
Dew Point: 30°   Wind: 8mph
Humidity: 79%   Direction: 140°SE
Pressure: 29.45"   Gusts: NA
Location:  43.4255°N, 98.9806°W
Report Text: K9V9 212055Z AUTO 14007KT 10SM CLR 02/M01 A2945 RMK AO2 T00231010
Loading
Personal Weather Stations






























Interactive Weather Map New forecast layout! Learn more

10-Day Weather Forecast

Advertisements
Track Severe Weather on mobile